createdAt,value
2022-11-28T00:00:37.157Z,5.50
2022-11-28T00:03:38.955Z,5.45
2022-11-28T00:06:46.929Z,5.44
2022-11-28T00:09:48.596Z,5.40
2022-11-28T00:12:50.117Z,5.43
2022-11-28T00:16:02.624Z,5.46
2022-11-28T00:19:06.173Z,5.48
2022-11-28T00:22:07.678Z,5.47
2022-11-28T00:25:09.256Z,5.47
2022-11-28T00:28:10.736Z,5.44
2022-11-28T00:31:21.591Z,5.40
2022-11-28T00:34:23.219Z,5.38
2022-11-28T00:37:24.723Z,5.33
2022-11-28T00:40:26.300Z,5.30
2022-11-28T00:43:28.154Z,5.32
2022-11-28T00:46:29.873Z,5.31
2022-11-28T00:49:31.393Z,5.31
2022-11-28T00:52:33.385Z,5.32
2022-11-28T00:55:34.989Z,5.23
2022-11-28T00:58:37.535Z,5.21
2022-11-28T01:01:43.767Z,5.23
2022-11-28T01:04:45.462Z,5.25
2022-11-28T01:07:47.081Z,5.27
2022-11-28T01:10:48.631Z,5.27
2022-11-28T01:13:50.583Z,5.25
2022-11-28T01:16:52.574Z,5.17
2022-11-28T01:19:54.204Z,5.17
2022-11-28T01:22:55.687Z,5.13
2022-11-28T01:25:57.370Z,5.11
2022-11-28T01:29:00.743Z,5.12
2022-11-28T01:32:02.426Z,5.11
2022-11-28T01:35:04.346Z,5.13
2022-11-28T01:38:06.358Z,5.13
2022-11-28T01:41:08.788Z,5.11
2022-11-28T01:44:12.988Z,5.10
2022-11-28T01:47:20.618Z,5.07
2022-11-28T01:50:23.409Z,5.07
2022-11-28T01:53:28.788Z,5.07
2022-11-28T01:56:40.136Z,5.02
2022-11-28T01:59:49.247Z,5.03
2022-11-28T02:03:04.399Z,5.03
2022-11-28T02:06:06.316Z,4.96
2022-11-28T02:09:15.932Z,5.03
2022-11-28T02:12:34.902Z,5.02
2022-11-28T02:15:57.677Z,4.97
2022-11-28T02:19:25.229Z,4.95
2022-11-28T02:22:52.383Z,4.97
2022-11-28T02:26:31.861Z,5.03
2022-11-28T02:29:36.378Z,5.00
2022-11-28T02:33:05.593Z,5.01
2022-11-28T02:36:30.200Z,4.99
2022-11-28T02:39:45.414Z,4.95
2022-11-28T02:43:07.990Z,4.87
2022-11-28T02:46:19.117Z,4.81
2022-11-28T02:49:33.690Z,4.73
2022-11-28T02:52:47.102Z,4.73
2022-11-28T02:55:51.621Z,4.76
2022-11-28T02:58:53.448Z,4.75
2022-11-28T03:01:55.185Z,4.77
2022-11-28T03:05:04.268Z,4.72
2022-11-28T03:08:19.200Z,4.71
2022-11-28T03:11:35.582Z,4.70
2022-11-28T03:15:00.398Z,4.69
2022-11-28T03:18:15.738Z,4.62
2022-11-28T03:21:29.079Z,4.64
2022-11-28T03:24:33.756Z,4.66
2022-11-28T03:27:45.730Z,4.62
2022-11-28T03:30:53.711Z,4.67
2022-11-28T03:33:58.311Z,4.68
2022-11-28T03:37:08.592Z,4.68
2022-11-28T03:40:15.179Z,4.60
2022-11-28T03:43:21.933Z,4.55
2022-11-28T03:46:27.129Z,4.53
2022-11-28T03:49:37.636Z,4.40
2022-11-28T03:52:49.318Z,4.40
2022-11-28T03:56:05.529Z,4.46
2022-11-28T03:59:10.551Z,4.43
2022-11-28T04:02:38.891Z,4.43
2022-11-28T04:05:50.508Z,4.42
2022-11-28T04:09:03.477Z,4.35
2022-11-28T04:12:10.513Z,4.35
2022-11-28T04:15:21.109Z,4.36
2022-11-28T04:18:40.437Z,4.32
2022-11-28T04:22:09.704Z,4.38
2022-11-28T04:25:15.070Z,4.30
2022-11-28T04:28:21.476Z,4.37
2022-11-28T04:31:24.330Z,4.33
2022-11-28T04:34:28.423Z,4.39
2022-11-28T04:37:32.517Z,4.33
2022-11-28T04:40:41.879Z,4.28
2022-11-28T04:43:50.012Z,4.28
2022-11-28T04:46:54.640Z,4.26
2022-11-28T04:49:56.225Z,4.29
2022-11-28T04:53:06.187Z,4.30
2022-11-28T04:56:13.551Z,4.26
2022-11-28T04:59:15.753Z,4.23
2022-11-28T05:02:18.915Z,4.30
2022-11-28T05:05:24.178Z,4.32
2022-11-28T05:08:25.662Z,4.11
2022-11-28T05:11:27.721Z,4.13
2022-11-28T05:14:29.430Z,4.21
2022-11-28T05:17:30.927Z,4.22
2022-11-28T05:20:32.578Z,4.26
2022-11-28T05:23:41.244Z,4.21
2022-11-28T05:26:43.242Z,4.18
2022-11-28T05:29:51.924Z,4.23
2022-11-28T05:32:53.935Z,4.34
2022-11-28T05:35:56.347Z,4.34
2022-11-28T05:38:57.884Z,4.42
2022-11-28T05:41:59.412Z,4.50
2022-11-28T05:45:01.130Z,4.55
2022-11-28T05:48:02.659Z,4.61
2022-11-28T05:51:05.317Z,4.48
2022-11-28T05:54:07.231Z,4.51
2022-11-28T05:57:08.841Z,4.59
2022-11-28T06:00:11.070Z,4.65
2022-11-28T06:03:15.878Z,4.66
2022-11-28T06:06:20.485Z,4.70
2022-11-28T06:09:25.627Z,4.73
2022-11-28T06:12:27.719Z,4.79
2022-11-28T06:15:37.612Z,4.82
2022-11-28T06:18:40.661Z,4.91
2022-11-28T06:21:42.280Z,4.97
2022-11-28T06:24:50.289Z,5.01
2022-11-28T06:27:57.746Z,5.05
2022-11-28T06:30:59.399Z,5.08
2022-11-28T06:34:00.907Z,5.11
2022-11-28T06:37:02.426Z,5.16
2022-11-28T06:40:05.022Z,5.21
2022-11-28T06:43:06.535Z,5.33
2022-11-28T06:46:15.917Z,5.39
2022-11-28T06:49:17.956Z,5.45
2022-11-28T06:52:19.537Z,5.50
2022-11-28T06:55:21.083Z,5.59
2022-11-28T06:58:22.620Z,5.62
2022-11-28T07:01:25.900Z,5.64
2022-11-28T07:04:27.400Z,5.67
2022-11-28T07:07:29.010Z,5.72
2022-11-28T07:10:30.646Z,5.75
2022-11-28T07:13:32.122Z,5.72
2022-11-28T07:16:33.874Z,5.78
2022-11-28T07:19:35.418Z,5.85
2022-11-28T07:22:36.931Z,5.88
2022-11-28T07:25:38.651Z,5.88
2022-11-28T07:28:40.878Z,5.90
2022-11-28T07:31:42.494Z,5.96
2022-11-28T07:34:49.865Z,6.01
2022-11-28T07:37:51.730Z,6.11
2022-11-28T07:40:53.296Z,6.18
2022-11-28T07:43:57.618Z,6.23
2022-11-28T07:46:59.175Z,6.32
2022-11-28T07:50:00.693Z,6.43
2022-11-28T07:53:06.971Z,6.50
2022-11-28T07:56:13.946Z,6.61
2022-11-28T07:59:16.195Z,6.75
2022-11-28T08:02:17.803Z,6.84
2022-11-28T08:05:19.474Z,6.88
2022-11-28T08:08:21.052Z,6.92
2022-11-28T08:11:25.027Z,6.97
2022-11-28T08:14:26.614Z,6.99
2022-11-28T08:17:28.169Z,7.06
2022-11-28T08:20:29.955Z,7.18
2022-11-28T08:23:34.338Z,7.36
2022-11-28T08:26:36.587Z,7.53
2022-11-28T08:29:38.101Z,7.63
2022-11-28T08:32:42.587Z,7.59
2022-11-28T08:35:45.263Z,7.74
2022-11-28T08:39:03.302Z,7.83
2022-11-28T08:42:07.431Z,7.89
2022-11-28T08:45:11.097Z,7.94
2022-11-28T08:48:12.823Z,8.12
2022-11-28T08:51:16.874Z,8.26
2022-11-28T08:54:18.686Z,8.36
2022-11-28T08:57:20.579Z,8.52
2022-11-28T09:00:22.423Z,8.60
2022-11-28T09:03:24.217Z,8.68
2022-11-28T09:06:25.862Z,8.71
2022-11-28T09:09:32.612Z,8.66
2022-11-28T09:12:34.428Z,8.73
2022-11-28T09:15:40.162Z,8.76
2022-11-28T09:18:41.715Z,8.80
2022-11-28T09:21:43.709Z,8.91
2022-11-28T09:24:45.180Z,8.98
2022-11-28T09:27:46.729Z,8.99
2022-11-28T09:30:48.394Z,9.09
2022-11-28T09:33:50.294Z,9.21
2022-11-28T09:36:51.875Z,9.29
2022-11-28T09:40:12.113Z,9.33
2022-11-28T09:43:29.451Z,9.32
2022-11-28T09:46:38.776Z,9.30
2022-11-28T09:49:41.411Z,9.33
2022-11-28T09:53:05.002Z,9.36
2022-11-28T09:56:15.325Z,9.36
2022-11-28T09:59:24.987Z,9.29
2022-11-28T10:02:34.891Z,9.20
2022-11-28T10:05:46.305Z,9.16
2022-11-28T10:08:59.971Z,9.23
2022-11-28T10:12:30.140Z,9.23
2022-11-28T10:15:44.696Z,9.31
2022-11-28T10:18:55.132Z,9.34
2022-11-28T10:22:00.363Z,9.47
2022-11-28T10:25:11.399Z,9.60
2022-11-28T10:28:19.091Z,9.51
2022-11-28T10:31:39.328Z,9.43
2022-11-28T10:34:46.155Z,9.44
2022-11-28T10:37:49.465Z,9.50
2022-11-28T10:41:13.831Z,9.54
2022-11-28T10:45:02.922Z,9.54
2022-11-28T10:48:40.044Z,9.56
2022-11-28T10:51:58.476Z,9.55
2022-11-28T10:55:16.945Z,9.60
2022-11-28T10:58:24.470Z,9.61
2022-11-28T11:01:39.339Z,9.56
2022-11-28T11:04:41.349Z,9.59
2022-11-28T11:07:54.862Z,9.73
2022-11-28T11:11:17.897Z,9.82
2022-11-28T11:14:41.488Z,10.01
2022-11-28T11:17:46.478Z,10.17
2022-11-28T11:20:48.105Z,10.29
2022-11-28T11:24:10.064Z,10.32
2022-11-28T11:27:21.504Z,10.25
2022-11-28T11:30:29.169Z,10.26
2022-11-28T11:33:35.182Z,10.30
2022-11-28T11:36:37.606Z,10.36
2022-11-28T11:39:49.537Z,10.38
2022-11-28T11:42:54.548Z,10.47
2022-11-28T11:46:10.951Z,10.58
2022-11-28T11:49:29.934Z,10.44
2022-11-28T11:52:31.728Z,10.58
2022-11-28T11:55:45.428Z,10.58
2022-11-28T11:58:51.854Z,10.29
2022-11-28T12:02:00.362Z,10.11
2022-11-28T12:05:09.891Z,10.06
2022-11-28T12:08:31.711Z,10.03
2022-11-28T12:11:46.592Z,10.00
2022-11-28T12:14:49.899Z,9.99
2022-11-28T12:18:16.942Z,10.05
2022-11-28T12:21:28.180Z,10.24
2022-11-28T12:24:56.795Z,10.02
2022-11-28T12:28:19.119Z,10.15
2022-11-28T12:31:35.772Z,10.15
2022-11-28T12:34:46.126Z,10.17
2022-11-28T12:38:15.291Z,10.13
2022-11-28T12:41:16.840Z,10.09
2022-11-28T12:44:27.072Z,10.00
2022-11-28T12:47:59.818Z,9.97
2022-11-28T12:51:26.409Z,10.00
2022-11-28T12:54:45.763Z,9.98
2022-11-28T12:58:07.146Z,9.96
2022-11-28T13:01:24.216Z,9.98
2022-11-28T13:04:44.470Z,9.79
2022-11-28T13:07:59.094Z,9.79
2022-11-28T13:11:12.666Z,9.93
2022-11-28T13:14:46.437Z,9.90
2022-11-28T13:18:17.991Z,9.75
2022-11-28T13:21:42.221Z,9.85
2022-11-28T13:24:48.629Z,9.90
2022-11-28T13:27:53.173Z,9.86
2022-11-28T13:31:31.485Z,9.61
2022-11-28T13:34:34.396Z,9.49
2022-11-28T13:42:09.563Z,9.37
2022-11-28T13:45:08.747Z,9.42
2022-11-28T13:52:18.752Z,9.39
2022-11-28T13:55:47.952Z,9.38
2022-11-28T13:58:58.055Z,9.49
2022-11-28T14:02:02.367Z,9.59
2022-11-28T14:05:21.468Z,9.63
2022-11-28T14:08:32.804Z,9.73
2022-11-28T14:12:07.978Z,9.77
2022-11-28T14:15:27.656Z,9.71
2022-11-28T14:18:56.712Z,9.62
2022-11-28T14:22:16.968Z,9.57
2022-11-28T14:25:26.572Z,9.51
2022-11-28T14:28:36.707Z,9.49
2022-11-28T14:31:39.873Z,9.44
2022-11-28T14:34:45.586Z,9.42
2022-11-28T14:37:55.452Z,9.37
2022-11-28T14:40:57.240Z,9.35
2022-11-28T14:44:44.115Z,9.25
2022-11-28T14:48:06.682Z,9.19
2022-11-28T14:51:09.020Z,9.19
2022-11-28T14:54:29.295Z,9.20
2022-11-28T14:57:35.931Z,9.20
2022-11-28T15:00:54.470Z,9.15
2022-11-28T15:04:12.759Z,9.13
2022-11-28T15:08:11.678Z,9.07
2022-11-28T15:11:32.968Z,8.96
2022-11-28T15:14:35.487Z,8.73
2022-11-28T15:17:38.127Z,8.64
2022-11-28T15:20:48.074Z,8.63
2022-11-28T15:23:49.967Z,8.58
2022-11-28T15:26:57.379Z,8.43
2022-11-28T15:30:01.240Z,8.43
2022-11-28T15:33:03.771Z,8.44
2022-11-28T15:36:27.165Z,8.41
2022-11-28T15:39:36.779Z,8.33
2022-11-28T15:42:38.898Z,8.23
2022-11-28T15:45:42.299Z,8.18
2022-11-28T15:48:49.482Z,8.16
2022-11-28T15:51:54.357Z,8.19
2022-11-28T15:54:56.286Z,8.21
2022-11-28T15:58:37.687Z,8.10
2022-11-28T16:01:40.551Z,8.03
2022-11-28T16:04:42.989Z,7.96
2022-11-28T16:07:45.479Z,8.02
2022-11-28T16:10:47.155Z,8.05
2022-11-28T16:13:50.324Z,8.01
2022-11-28T16:16:51.921Z,7.97
2022-11-28T16:19:55.390Z,7.94
2022-11-28T16:23:04.462Z,7.96
2022-11-28T16:26:19.978Z,8.05
2022-11-28T16:29:31.792Z,8.08
2022-11-28T16:32:39.463Z,8.05
2022-11-28T16:35:41.607Z,8.11
2022-11-28T16:38:48.403Z,8.03
2022-11-28T16:41:54.690Z,8.01
2022-11-28T16:44:56.734Z,8.03
2022-11-28T16:48:01.097Z,8.05
2022-11-28T16:51:02.893Z,8.09
2022-11-28T16:54:32.002Z,8.00
2022-11-28T16:57:46.823Z,7.98
2022-11-28T17:01:00.893Z,7.93
2022-11-28T17:04:03.442Z,7.88
2022-11-28T17:07:09.471Z,7.91
2022-11-28T17:10:14.085Z,7.95
2022-11-28T17:13:17.378Z,7.93
2022-11-28T17:16:23.833Z,7.89
2022-11-28T17:19:25.642Z,7.87
2022-11-28T17:22:43.486Z,7.87
2022-11-28T17:25:44.967Z,7.89
2022-11-28T17:28:47.047Z,7.94
2022-11-28T17:31:48.981Z,7.95
2022-11-28T17:34:50.554Z,7.96
2022-11-28T17:37:52.094Z,7.99
2022-11-28T17:40:53.610Z,8.00
2022-11-28T17:43:55.169Z,7.99
2022-11-28T17:46:58.130Z,8.03
2022-11-28T17:50:00.045Z,7.98
2022-11-28T17:53:01.646Z,7.95
2022-11-28T17:56:03.559Z,7.94
2022-11-28T17:59:05.518Z,7.96
2022-11-28T18:02:07.060Z,7.89
2022-11-28T18:05:09.650Z,7.90
2022-11-28T18:08:12.472Z,7.92
2022-11-28T18:11:15.274Z,7.94
2022-11-28T18:14:19.804Z,7.97
2022-11-28T18:17:22.182Z,7.98
2022-11-28T18:20:28.451Z,7.95
2022-11-28T18:23:30.037Z,7.90
2022-11-28T18:26:31.829Z,7.90
2022-11-28T18:29:34.239Z,7.83
2022-11-28T18:32:35.814Z,7.79
2022-11-28T18:35:38.151Z,7.85
2022-11-28T18:38:40.731Z,7.89
2022-11-28T18:41:42.514Z,7.88
2022-11-28T18:44:44.026Z,7.93
2022-11-28T18:47:45.579Z,7.91
2022-11-28T18:50:47.080Z,7.95
2022-11-28T18:53:49.828Z,7.94
2022-11-28T18:56:52.551Z,7.94
2022-11-28T18:59:55.391Z,7.92
2022-11-28T19:02:57.651Z,7.82
2022-11-28T19:05:59.496Z,7.79
2022-11-28T19:09:03.373Z,7.80
2022-11-28T19:12:05.049Z,7.80
2022-11-28T19:15:07.786Z,7.84
2022-11-28T19:18:09.331Z,7.82
2022-11-28T19:21:14.219Z,7.81
2022-11-28T19:24:15.799Z,7.82
2022-11-28T19:27:17.436Z,7.74
2022-11-28T19:30:19.135Z,7.70
2022-11-28T19:33:20.779Z,7.71
2022-11-28T19:36:22.383Z,7.65
2022-11-28T19:39:25.308Z,7.69
2022-11-28T19:42:27.239Z,7.67
2022-11-28T19:45:28.774Z,7.65
2022-11-28T19:48:32.446Z,7.72
2022-11-28T19:51:34.845Z,7.68
2022-11-28T19:54:37.054Z,7.68
2022-11-28T19:57:38.882Z,7.72
2022-11-28T20:00:41.109Z,7.72
2022-11-28T20:03:47.537Z,7.73
2022-11-28T20:06:49.421Z,7.77
2022-11-28T20:09:51.200Z,7.79
2022-11-28T20:12:54.177Z,7.71
2022-11-28T20:16:02.260Z,7.69
2022-11-28T20:19:05.301Z,7.69
2022-11-28T20:22:08.077Z,7.68
2022-11-28T20:25:10.094Z,7.68
2022-11-28T20:28:15.820Z,7.69
2022-11-28T20:31:33.853Z,7.67
2022-11-28T20:34:35.694Z,7.70
2022-11-28T20:37:39.016Z,7.72
2022-11-28T20:40:40.495Z,7.74
2022-11-28T20:43:42.626Z,7.75
2022-11-28T20:46:46.440Z,7.76
2022-11-28T20:49:48.376Z,7.76
2022-11-28T20:52:49.972Z,7.75
2022-11-28T20:56:02.833Z,7.77
2022-11-28T20:59:05.976Z,7.79
2022-11-28T21:02:10.009Z,7.78
2022-11-28T21:05:13.907Z,7.79
2022-11-28T21:08:15.590Z,7.74
2022-11-28T21:14:48.813Z,7.70
2022-11-28T21:17:59.490Z,7.76
2022-11-28T21:21:07.136Z,7.78
2022-11-28T21:24:12.061Z,7.77
2022-11-28T21:27:13.973Z,7.70
2022-11-28T21:30:15.794Z,7.68
2022-11-28T21:33:17.415Z,7.64
2022-11-28T21:36:19.406Z,7.66
2022-11-28T21:39:21.838Z,7.66
2022-11-28T21:42:23.450Z,7.64
2022-11-28T21:45:25.903Z,7.66
2022-11-28T21:48:29.358Z,7.68
2022-11-28T21:51:30.979Z,7.69
2022-11-28T21:54:32.514Z,7.69
2022-11-28T21:57:34.495Z,7.65
2022-11-28T22:00:53.071Z,7.64
2022-11-28T22:04:00.629Z,7.62
2022-11-28T22:07:03.939Z,7.63
2022-11-28T22:10:06.360Z,7.67
2022-11-28T22:13:07.914Z,7.71
2022-11-28T22:16:20.126Z,7.72
2022-11-28T22:19:23.322Z,7.72
2022-11-28T22:22:28.514Z,7.68
2022-11-28T22:25:30.726Z,7.67
2022-11-28T22:28:34.051Z,7.65
2022-11-28T22:31:35.787Z,7.68
2022-11-28T22:34:40.049Z,7.67
2022-11-28T22:37:42.769Z,7.65
2022-11-28T22:40:44.705Z,7.62
2022-11-28T22:43:47.031Z,7.58
2022-11-28T22:46:49.203Z,7.64
2022-11-28T22:49:50.944Z,7.65
2022-11-28T22:52:52.627Z,7.61
2022-11-28T22:55:54.478Z,7.61
2022-11-28T22:58:56.116Z,7.60
2022-11-28T23:01:58.565Z,7.57
2022-11-28T23:05:00.387Z,7.61
2022-11-28T23:08:03.103Z,7.62
2022-11-28T23:11:10.721Z,7.58
2022-11-28T23:14:14.058Z,7.62
2022-11-28T23:17:16.568Z,7.64
2022-11-28T23:20:18.162Z,7.61
2022-11-28T23:23:19.899Z,7.65
2022-11-28T23:26:24.565Z,7.59
2022-11-28T23:29:27.494Z,7.63
2022-11-28T23:32:29.814Z,7.52
2022-11-28T23:35:31.429Z,7.47
2022-11-28T23:38:33.119Z,7.42
2022-11-28T23:41:34.826Z,7.43
2022-11-28T23:44:36.366Z,7.48
2022-11-28T23:47:37.989Z,7.48
2022-11-28T23:50:39.596Z,7.47
2022-11-28T23:53:42.390Z,7.46
2022-11-28T23:56:44.088Z,7.48
2022-11-28T23:59:45.713Z,7.48
